sensor_id;sensor_type;location;lat;lon;timestamp;P1;durP1;ratioP1;P2;durP2;ratioP2
28756;SDS011;44294;48.282;14.282;2023-07-29T00:01:35;0.60;;;0.60;;
28756;SDS011;44294;48.282;14.282;2023-07-29T00:04:22;0.60;;;0.60;;
28756;SDS011;44294;48.282;14.282;2023-07-29T00:07:10;0.70;;;0.70;;
28756;SDS011;44294;48.282;14.282;2023-07-29T00:09:57;0.67;;;0.67;;
28756;SDS011;44294;48.282;14.282;2023-07-29T00:12:44;0.60;;;0.60;;
28756;SDS011;44294;48.282;14.282;2023-07-29T00:15:32;0.70;;;0.70;;
28756;SDS011;44294;48.282;14.282;2023-07-29T00:18:19;0.70;;;0.70;;
28756;SDS011;44294;48.282;14.282;2023-07-29T00:21:06;0.70;;;0.70;;
28756;SDS011;44294;48.282;14.282;2023-07-29T00:23:54;0.60;;;0.60;;
28756;SDS011;44294;48.282;14.282;2023-07-29T00:26:43;0.57;;;0.57;;
28756;SDS011;44294;48.282;14.282;2023-07-29T00:29:30;0.60;;;0.60;;
28756;SDS011;44294;48.282;14.282;2023-07-29T00:32:17;0.60;;;0.60;;
28756;SDS011;44294;48.282;14.282;2023-07-29T00:35:05;0.60;;;0.60;;
28756;SDS011;44294;48.282;14.282;2023-07-29T00:37:52;0.70;;;0.70;;
28756;SDS011;44294;48.282;14.282;2023-07-29T00:40:40;0.60;;;0.60;;
28756;SDS011;44294;48.282;14.282;2023-07-29T00:43:27;0.70;;;0.70;;
28756;SDS011;44294;48.282;14.282;2023-07-29T00:46:14;0.60;;;0.60;;
28756;SDS011;44294;48.282;14.282;2023-07-29T00:49:02;0.60;;;0.60;;
28756;SDS011;44294;48.282;14.282;2023-07-29T00:51:50;0.60;;;0.60;;
28756;SDS011;44294;48.282;14.282;2023-07-29T00:54:37;0.60;;;0.60;;
28756;SDS011;44294;48.282;14.282;2023-07-29T00:57:25;0.60;;;0.60;;
28756;SDS011;44294;48.282;14.282;2023-07-29T01:00:12;0.70;;;0.70;;
28756;SDS011;44294;48.282;14.282;2023-07-29T01:02:59;0.60;;;0.60;;
28756;SDS011;44294;48.282;14.282;2023-07-29T01:05:50;0.60;;;0.60;;
28756;SDS011;44294;48.282;14.282;2023-07-29T01:08:55;0.60;;;0.60;;
28756;SDS011;44294;48.282;14.282;2023-07-29T01:14:47;0.60;;;0.60;;
28756;SDS011;44294;48.282;14.282;2023-07-29T01:17:49;0.63;;;0.63;;
28756;SDS011;44294;48.282;14.282;2023-07-29T01:20:34;0.60;;;0.60;;
28756;SDS011;44294;48.282;14.282;2023-07-29T01:23:26;0.60;;;0.60;;
28756;SDS011;44294;48.282;14.282;2023-07-29T01:26:14;0.60;;;0.60;;
28756;SDS011;44294;48.282;14.282;2023-07-29T01:29:01;0.60;;;0.60;;
28756;SDS011;44294;48.282;14.282;2023-07-29T01:31:48;0.50;;;0.50;;
28756;SDS011;44294;48.282;14.282;2023-07-29T01:37:43;0.60;;;0.60;;
28756;SDS011;44294;48.282;14.282;2023-07-29T01:40:32;0.60;;;0.60;;
28756;SDS011;44294;48.282;14.282;2023-07-29T01:43:20;0.60;;;0.60;;
28756;SDS011;44294;48.282;14.282;2023-07-29T01:46:10;0.70;;;0.70;;
28756;SDS011;44294;48.282;14.282;2023-07-29T01:48:59;0.60;;;0.60;;
28756;SDS011;44294;48.282;14.282;2023-07-29T01:51:46;0.60;;;0.60;;
28756;SDS011;44294;48.282;14.282;2023-07-29T01:54:34;0.60;;;0.60;;
28756;SDS011;44294;48.282;14.282;2023-07-29T01:57:21;0.60;;;0.60;;
28756;SDS011;44294;48.282;14.282;2023-07-29T02:00:09;0.70;;;0.70;;
28756;SDS011;44294;48.282;14.282;2023-07-29T02:02:56;0.60;;;0.60;;
28756;SDS011;44294;48.282;14.282;2023-07-29T02:05:43;0.70;;;0.70;;
28756;SDS011;44294;48.282;14.282;2023-07-29T02:08:31;0.60;;;0.60;;
28756;SDS011;44294;48.282;14.282;2023-07-29T02:11:18;0.70;;;0.70;;
28756;SDS011;44294;48.282;14.282;2023-07-29T02:14:07;0.60;;;0.60;;
28756;SDS011;44294;48.282;14.282;2023-07-29T02:16:54;0.60;;;0.60;;
28756;SDS011;44294;48.282;14.282;2023-07-29T02:19:41;0.70;;;0.70;;
28756;SDS011;44294;48.282;14.282;2023-07-29T02:22:29;0.60;;;0.60;;
28756;SDS011;44294;48.282;14.282;2023-07-29T02:25:16;0.60;;;0.60;;
28756;SDS011;44294;48.282;14.282;2023-07-29T02:28:03;0.60;;;0.60;;
28756;SDS011;44294;48.282;14.282;2023-07-29T02:31:08;0.60;;;0.60;;
28756;SDS011;44294;48.282;14.282;2023-07-29T02:33:39;0.60;;;0.60;;
28756;SDS011;44294;48.282;14.282;2023-07-29T02:36:27;0.60;;;0.60;;
28756;SDS011;44294;48.282;14.282;2023-07-29T02:39:14;0.50;;;0.50;;
28756;SDS011;44294;48.282;14.282;2023-07-29T02:42:01;0.60;;;0.60;;
28756;SDS011;44294;48.282;14.282;2023-07-29T02:44:49;0.60;;;0.60;;
28756;SDS011;44294;48.282;14.282;2023-07-29T02:47:37;0.60;;;0.60;;
28756;SDS011;44294;48.282;14.282;2023-07-29T02:50:24;0.60;;;0.60;;
28756;SDS011;44294;48.282;14.282;2023-07-29T02:53:11;0.60;;;0.60;;
28756;SDS011;44294;48.282;14.282;2023-07-29T02:55:59;0.60;;;0.60;;
28756;SDS011;44294;48.282;14.282;2023-07-29T02:58:46;0.60;;;0.60;;
28756;SDS011;44294;48.282;14.282;2023-07-29T03:01:33;0.60;;;0.60;;
28756;SDS011;44294;48.282;14.282;2023-07-29T03:04:21;0.60;;;0.60;;
28756;SDS011;44294;48.282;14.282;2023-07-29T03:07:09;0.60;;;0.60;;
28756;SDS011;44294;48.282;14.282;2023-07-29T03:09:56;0.60;;;0.60;;
28756;SDS011;44294;48.282;14.282;2023-07-29T03:12:44;0.60;;;0.60;;
28756;SDS011;44294;48.282;14.282;2023-07-29T03:15:31;0.60;;;0.60;;
28756;SDS011;44294;48.282;14.282;2023-07-29T03:18:20;0.70;;;0.70;;
28756;SDS011;44294;48.282;14.282;2023-07-29T03:21:07;0.60;;;0.60;;
28756;SDS011;44294;48.282;14.282;2023-07-29T03:23:55;0.70;;;0.70;;
28756;SDS011;44294;48.282;14.282;2023-07-29T03:26:42;0.60;;;0.60;;
28756;SDS011;44294;48.282;14.282;2023-07-29T03:29:29;0.60;;;0.60;;
28756;SDS011;44294;48.282;14.282;2023-07-29T03:32:16;0.60;;;0.60;;
28756;SDS011;44294;48.282;14.282;2023-07-29T03:35:04;0.50;;;0.50;;
28756;SDS011;44294;48.282;14.282;2023-07-29T03:37:51;0.60;;;0.60;;
28756;SDS011;44294;48.282;14.282;2023-07-29T03:40:39;0.60;;;0.60;;
28756;SDS011;44294;48.282;14.282;2023-07-29T03:43:27;0.60;;;0.60;;
28756;SDS011;44294;48.282;14.282;2023-07-29T03:46:14;0.70;;;0.70;;
28756;SDS011;44294;48.282;14.282;2023-07-29T03:49:03;0.60;;;0.60;;
28756;SDS011;44294;48.282;14.282;2023-07-29T03:51:50;0.60;;;0.60;;
28756;SDS011;44294;48.282;14.282;2023-07-29T03:54:38;0.70;;;0.70;;
28756;SDS011;44294;48.282;14.282;2023-07-29T03:57:25;0.70;;;0.70;;
28756;SDS011;44294;48.282;14.282;2023-07-29T04:00:12;0.60;;;0.60;;
28756;SDS011;44294;48.282;14.282;2023-07-29T04:03:00;0.60;;;0.60;;
28756;SDS011;44294;48.282;14.282;2023-07-29T04:05:47;0.70;;;0.70;;
28756;SDS011;44294;48.282;14.282;2023-07-29T04:08:34;0.63;;;0.63;;
28756;SDS011;44294;48.282;14.282;2023-07-29T04:11:22;0.60;;;0.60;;
28756;SDS011;44294;48.282;14.282;2023-07-29T04:14:10;0.60;;;0.60;;
28756;SDS011;44294;48.282;14.282;2023-07-29T04:16:57;0.70;;;0.70;;
28756;SDS011;44294;48.282;14.282;2023-07-29T04:19:44;0.60;;;0.60;;
28756;SDS011;44294;48.282;14.282;2023-07-29T04:22:31;0.60;;;0.60;;
28756;SDS011;44294;48.282;14.282;2023-07-29T04:25:19;0.60;;;0.60;;
28756;SDS011;44294;48.282;14.282;2023-07-29T04:28:06;0.60;;;0.60;;
28756;SDS011;44294;48.282;14.282;2023-07-29T04:30:53;0.60;;;0.60;;
28756;SDS011;44294;48.282;14.282;2023-07-29T04:33:41;0.60;;;0.60;;
28756;SDS011;44294;48.282;14.282;2023-07-29T04:36:29;0.70;;;0.70;;
28756;SDS011;44294;48.282;14.282;2023-07-29T04:39:16;0.60;;;0.60;;
28756;SDS011;44294;48.282;14.282;2023-07-29T04:42:04;0.60;;;0.60;;
28756;SDS011;44294;48.282;14.282;2023-07-29T04:44:51;0.60;;;0.60;;
28756;SDS011;44294;48.282;14.282;2023-07-29T04:47:38;0.70;;;0.70;;
28756;SDS011;44294;48.282;14.282;2023-07-29T04:50:26;0.60;;;0.60;;
28756;SDS011;44294;48.282;14.282;2023-07-29T04:53:13;0.73;;;0.73;;
28756;SDS011;44294;48.282;14.282;2023-07-29T04:56:01;0.70;;;0.70;;
28756;SDS011;44294;48.282;14.282;2023-07-29T04:58:48;0.60;;;0.60;;
28756;SDS011;44294;48.282;14.282;2023-07-29T05:01:36;0.70;;;0.70;;
28756;SDS011;44294;48.282;14.282;2023-07-29T05:04:23;0.60;;;0.60;;
28756;SDS011;44294;48.282;14.282;2023-07-29T05:07:11;0.60;;;0.60;;
28756;SDS011;44294;48.282;14.282;2023-07-29T05:09:58;0.70;;;0.70;;
28756;SDS011;44294;48.282;14.282;2023-07-29T05:12:45;0.70;;;0.70;;
28756;SDS011;44294;48.282;14.282;2023-07-29T05:15:32;0.60;;;0.60;;
28756;SDS011;44294;48.282;14.282;2023-07-29T05:18:20;0.80;;;0.80;;
28756;SDS011;44294;48.282;14.282;2023-07-29T05:21:07;0.70;;;0.70;;
28756;SDS011;44294;48.282;14.282;2023-07-29T05:23:54;0.60;;;0.60;;
28756;SDS011;44294;48.282;14.282;2023-07-29T05:26:42;0.60;;;0.60;;
28756;SDS011;44294;48.282;14.282;2023-07-29T05:29:29;0.60;;;0.60;;
28756;SDS011;44294;48.282;14.282;2023-07-29T05:32:16;0.60;;;0.60;;
28756;SDS011;44294;48.282;14.282;2023-07-29T05:35:04;0.60;;;0.60;;
28756;SDS011;44294;48.282;14.282;2023-07-29T05:37:51;0.70;;;0.70;;
28756;SDS011;44294;48.282;14.282;2023-07-29T05:40:39;0.60;;;0.60;;
28756;SDS011;44294;48.282;14.282;2023-07-29T05:43:27;0.60;;;0.60;;
28756;SDS011;44294;48.282;14.282;2023-07-29T05:46:15;0.60;;;0.60;;
28756;SDS011;44294;48.282;14.282;2023-07-29T05:49:02;0.60;;;0.60;;
28756;SDS011;44294;48.282;14.282;2023-07-29T05:51:49;0.70;;;0.70;;
28756;SDS011;44294;48.282;14.282;2023-07-29T05:54:38;0.70;;;0.70;;
28756;SDS011;44294;48.282;14.282;2023-07-29T05:57:26;0.60;;;0.60;;
28756;SDS011;44294;48.282;14.282;2023-07-29T06:00:13;0.60;;;0.60;;
28756;SDS011;44294;48.282;14.282;2023-07-29T06:03:00;0.70;;;0.70;;
28756;SDS011;44294;48.282;14.282;2023-07-29T06:05:48;0.70;;;0.70;;
28756;SDS011;44294;48.282;14.282;2023-07-29T06:08:36;0.60;;;0.60;;
28756;SDS011;44294;48.282;14.282;2023-07-29T06:11:23;0.60;;;0.60;;
28756;SDS011;44294;48.282;14.282;2023-07-29T06:14:10;0.70;;;0.70;;
28756;SDS011;44294;48.282;14.282;2023-07-29T06:16:58;0.60;;;0.60;;
28756;SDS011;44294;48.282;14.282;2023-07-29T06:19:45;0.60;;;0.60;;
28756;SDS011;44294;48.282;14.282;2023-07-29T06:22:32;0.67;;;0.67;;
28756;SDS011;44294;48.282;14.282;2023-07-29T06:25:20;0.50;;;0.50;;
28756;SDS011;44294;48.282;14.282;2023-07-29T06:28:09;0.50;;;0.50;;
28756;SDS011;44294;48.282;14.282;2023-07-29T06:30:56;0.60;;;0.60;;
28756;SDS011;44294;48.282;14.282;2023-07-29T06:33:43;0.60;;;0.60;;
28756;SDS011;44294;48.282;14.282;2023-07-29T06:36:31;0.70;;;0.70;;
28756;SDS011;44294;48.282;14.282;2023-07-29T06:39:18;0.60;;;0.60;;
28756;SDS011;44294;48.282;14.282;2023-07-29T06:42:05;0.60;;;0.60;;
28756;SDS011;44294;48.282;14.282;2023-07-29T06:44:53;0.60;;;0.60;;
28756;SDS011;44294;48.282;14.282;2023-07-29T06:47:40;0.60;;;0.60;;
28756;SDS011;44294;48.282;14.282;2023-07-29T06:50:27;0.57;;;0.57;;
28756;SDS011;44294;48.282;14.282;2023-07-29T06:53:15;0.60;;;0.60;;
28756;SDS011;44294;48.282;14.282;2023-07-29T06:56:02;0.60;;;0.60;;
28756;SDS011;44294;48.282;14.282;2023-07-29T06:58:49;0.60;;;0.60;;
28756;SDS011;44294;48.282;14.282;2023-07-29T07:01:37;0.60;;;0.60;;
28756;SDS011;44294;48.282;14.282;2023-07-29T07:04:24;0.50;;;0.50;;
28756;SDS011;44294;48.282;14.282;2023-07-29T07:07:11;0.60;;;0.60;;
28756;SDS011;44294;48.282;14.282;2023-07-29T07:09:59;0.60;;;0.60;;
28756;SDS011;44294;48.282;14.282;2023-07-29T07:12:46;0.50;;;0.50;;
28756;SDS011;44294;48.282;14.282;2023-07-29T07:15:34;0.60;;;0.60;;
28756;SDS011;44294;48.282;14.282;2023-07-29T07:18:21;0.50;;;0.50;;
28756;SDS011;44294;48.282;14.282;2023-07-29T07:21:11;0.50;;;0.50;;
28756;SDS011;44294;48.282;14.282;2023-07-29T07:23:58;0.60;;;0.60;;
28756;SDS011;44294;48.282;14.282;2023-07-29T07:26:46;0.50;;;0.50;;
28756;SDS011;44294;48.282;14.282;2023-07-29T07:29:33;0.50;;;0.50;;
28756;SDS011;44294;48.282;14.282;2023-07-29T07:32:21;0.60;;;0.60;;
28756;SDS011;44294;48.282;14.282;2023-07-29T07:35:08;0.50;;;0.50;;
28756;SDS011;44294;48.282;14.282;2023-07-29T07:37:55;0.50;;;0.50;;
28756;SDS011;44294;48.282;14.282;2023-07-29T07:40:43;0.50;;;0.50;;
28756;SDS011;44294;48.282;14.282;2023-07-29T07:43:30;0.63;;;0.63;;
28756;SDS011;44294;48.282;14.282;2023-07-29T07:46:17;0.50;;;0.50;;
28756;SDS011;44294;48.282;14.282;2023-07-29T07:49:05;0.50;;;0.50;;
28756;SDS011;44294;48.282;14.282;2023-07-29T07:51:52;0.60;;;0.60;;
28756;SDS011;44294;48.282;14.282;2023-07-29T07:54:39;0.50;;;0.50;;
28756;SDS011;44294;48.282;14.282;2023-07-29T07:57:27;0.50;;;0.50;;
28756;SDS011;44294;48.282;14.282;2023-07-29T08:00:14;0.60;;;0.60;;
28756;SDS011;44294;48.282;14.282;2023-07-29T08:03:02;0.50;;;0.50;;
28756;SDS011;44294;48.282;14.282;2023-07-29T08:05:49;0.50;;;0.50;;
28756;SDS011;44294;48.282;14.282;2023-07-29T08:08:37;0.50;;;0.50;;
28756;SDS011;44294;48.282;14.282;2023-07-29T08:11:25;0.60;;;0.60;;
28756;SDS011;44294;48.282;14.282;2023-07-29T08:14:12;0.57;;;0.57;;
28756;SDS011;44294;48.282;14.282;2023-07-29T08:17:00;0.50;;;0.50;;
28756;SDS011;44294;48.282;14.282;2023-07-29T08:19:48;0.50;;;0.50;;
28756;SDS011;44294;48.282;14.282;2023-07-29T08:22:35;0.60;;;0.60;;
28756;SDS011;44294;48.282;14.282;2023-07-29T08:25:22;0.50;;;0.50;;
28756;SDS011;44294;48.282;14.282;2023-07-29T08:28:10;0.50;;;0.50;;
28756;SDS011;44294;48.282;14.282;2023-07-29T08:30:57;0.50;;;0.50;;
28756;SDS011;44294;48.282;14.282;2023-07-29T08:33:44;0.57;;;0.57;;
28756;SDS011;44294;48.282;14.282;2023-07-29T08:36:32;0.50;;;0.50;;
28756;SDS011;44294;48.282;14.282;2023-07-29T08:39:19;0.50;;;0.50;;
28756;SDS011;44294;48.282;14.282;2023-07-29T08:42:07;0.50;;;0.50;;
28756;SDS011;44294;48.282;14.282;2023-07-29T08:44:57;0.50;;;0.50;;
28756;SDS011;44294;48.282;14.282;2023-07-29T08:47:46;0.50;;;0.50;;
28756;SDS011;44294;48.282;14.282;2023-07-29T08:50:33;0.40;;;0.40;;
28756;SDS011;44294;48.282;14.282;2023-07-29T08:53:22;0.50;;;0.50;;
28756;SDS011;44294;48.282;14.282;2023-07-29T08:56:09;0.50;;;0.50;;
28756;SDS011;44294;48.282;14.282;2023-07-29T08:58:57;0.50;;;0.50;;
28756;SDS011;44294;48.282;14.282;2023-07-29T09:01:46;0.50;;;0.50;;
28756;SDS011;44294;48.282;14.282;2023-07-29T09:04:34;0.50;;;0.50;;
28756;SDS011;44294;48.282;14.282;2023-07-29T09:07:21;0.50;;;0.50;;
28756;SDS011;44294;48.282;14.282;2023-07-29T09:10:09;0.50;;;0.50;;
28756;SDS011;44294;48.282;14.282;2023-07-29T09:12:58;0.50;;;0.50;;
28756;SDS011;44294;48.282;14.282;2023-07-29T09:15:47;0.40;;;0.40;;
28756;SDS011;44294;48.282;14.282;2023-07-29T09:18:34;0.50;;;0.50;;
28756;SDS011;44294;48.282;14.282;2023-07-29T09:21:24;0.50;;;0.50;;
28756;SDS011;44294;48.282;14.282;2023-07-29T09:24:15;0.50;;;0.50;;
28756;SDS011;44294;48.282;14.282;2023-07-29T09:27:01;0.40;;;0.40;;
28756;SDS011;44294;48.282;14.282;2023-07-29T09:29:49;0.50;;;0.50;;
28756;SDS011;44294;48.282;14.282;2023-07-29T09:32:36;0.50;;;0.50;;
28756;SDS011;44294;48.282;14.282;2023-07-29T09:35:27;0.50;;;0.50;;
28756;SDS011;44294;48.282;14.282;2023-07-29T09:38:14;0.50;;;0.50;;
28756;SDS011;44294;48.282;14.282;2023-07-29T09:41:02;0.50;;;0.50;;
28756;SDS011;44294;48.282;14.282;2023-07-29T09:43:54;0.50;;;0.50;;
28756;SDS011;44294;48.282;14.282;2023-07-29T09:46:38;0.50;;;0.50;;
28756;SDS011;44294;48.282;14.282;2023-07-29T09:49:26;0.50;;;0.50;;
28756;SDS011;44294;48.282;14.282;2023-07-29T09:52:16;0.50;;;0.50;;
28756;SDS011;44294;48.282;14.282;2023-07-29T09:55:04;0.50;;;0.50;;
28756;SDS011;44294;48.282;14.282;2023-07-29T09:57:59;0.50;;;0.50;;
28756;SDS011;44294;48.282;14.282;2023-07-29T10:00:48;0.50;;;0.50;;
28756;SDS011;44294;48.282;14.282;2023-07-29T10:03:35;0.50;;;0.50;;
28756;SDS011;44294;48.282;14.282;2023-07-29T10:06:23;0.50;;;0.50;;
28756;SDS011;44294;48.282;14.282;2023-07-29T10:09:11;0.50;;;0.50;;
28756;SDS011;44294;48.282;14.282;2023-07-29T10:11:59;0.50;;;0.50;;
28756;SDS011;44294;48.282;14.282;2023-07-29T10:14:46;0.50;;;0.50;;
28756;SDS011;44294;48.282;14.282;2023-07-29T10:17:36;0.50;;;0.50;;
28756;SDS011;44294;48.282;14.282;2023-07-29T10:20:23;0.53;;;0.53;;
28756;SDS011;44294;48.282;14.282;2023-07-29T10:23:11;0.50;;;0.50;;
28756;SDS011;44294;48.282;14.282;2023-07-29T10:26:03;0.60;;;0.60;;
28756;SDS011;44294;48.282;14.282;2023-07-29T10:28:51;0.40;;;0.40;;
28756;SDS011;44294;48.282;14.282;2023-07-29T10:31:40;0.60;;;0.60;;
28756;SDS011;44294;48.282;14.282;2023-07-29T10:34:28;0.50;;;0.50;;
28756;SDS011;44294;48.282;14.282;2023-07-29T10:37:16;0.50;;;0.50;;
28756;SDS011;44294;48.282;14.282;2023-07-29T10:40:05;0.50;;;0.50;;
28756;SDS011;44294;48.282;14.282;2023-07-29T10:42:59;0.50;;;0.50;;
28756;SDS011;44294;48.282;14.282;2023-07-29T10:45:48;0.50;;;0.50;;
28756;SDS011;44294;48.282;14.282;2023-07-29T10:54:18;0.50;;;0.50;;
28756;SDS011;44294;48.282;14.282;2023-07-29T10:57:06;0.50;;;0.50;;
28756;SDS011;44294;48.282;14.282;2023-07-29T10:59:54;0.50;;;0.50;;
28756;SDS011;44294;48.282;14.282;2023-07-29T11:02:42;0.50;;;0.50;;
28756;SDS011;44294;48.282;14.282;2023-07-29T11:05:50;0.50;;;0.50;;
28756;SDS011;44294;48.282;14.282;2023-07-29T11:08:34;0.50;;;0.50;;
28756;SDS011;44294;48.282;14.282;2023-07-29T11:11:21;0.50;;;0.50;;
28756;SDS011;44294;48.282;14.282;2023-07-29T11:14:09;0.50;;;0.50;;
28756;SDS011;44294;48.282;14.282;2023-07-29T11:16:56;0.50;;;0.50;;
28756;SDS011;44294;48.282;14.282;2023-07-29T11:19:44;0.60;;;0.60;;
28756;SDS011;44294;48.282;14.282;2023-07-29T11:22:32;0.60;;;0.60;;
28756;SDS011;44294;48.282;14.282;2023-07-29T11:25:20;0.50;;;0.50;;
28756;SDS011;44294;48.282;14.282;2023-07-29T11:28:08;0.60;;;0.60;;
28756;SDS011;44294;48.282;14.282;2023-07-29T11:30:55;0.50;;;0.50;;
28756;SDS011;44294;48.282;14.282;2023-07-29T11:33:43;0.60;;;0.60;;
28756;SDS011;44294;48.282;14.282;2023-07-29T11:36:30;0.50;;;0.50;;
28756;SDS011;44294;48.282;14.282;2023-07-29T11:39:17;0.50;;;0.50;;
28756;SDS011;44294;48.282;14.282;2023-07-29T11:42:06;0.50;;;0.50;;
28756;SDS011;44294;48.282;14.282;2023-07-29T11:44:59;0.50;;;0.50;;
28756;SDS011;44294;48.282;14.282;2023-07-29T11:47:42;0.50;;;0.50;;
28756;SDS011;44294;48.282;14.282;2023-07-29T11:50:30;0.50;;;0.50;;
28756;SDS011;44294;48.282;14.282;2023-07-29T11:53:17;0.50;;;0.50;;
28756;SDS011;44294;48.282;14.282;2023-07-29T11:56:05;0.50;;;0.50;;
28756;SDS011;44294;48.282;14.282;2023-07-29T11:58:53;0.50;;;0.50;;
28756;SDS011;44294;48.282;14.282;2023-07-29T12:01:40;0.50;;;0.50;;
28756;SDS011;44294;48.282;14.282;2023-07-29T12:04:28;0.50;;;0.50;;
28756;SDS011;44294;48.282;14.282;2023-07-29T12:07:16;0.50;;;0.50;;
28756;SDS011;44294;48.282;14.282;2023-07-29T12:10:05;0.50;;;0.50;;
28756;SDS011;44294;48.282;14.282;2023-07-29T12:12:52;0.50;;;0.50;;
28756;SDS011;44294;48.282;14.282;2023-07-29T12:15:39;0.50;;;0.50;;
28756;SDS011;44294;48.282;14.282;2023-07-29T12:18:30;0.50;;;0.50;;
28756;SDS011;44294;48.282;14.282;2023-07-29T12:21:20;0.50;;;0.50;;
28756;SDS011;44294;48.282;14.282;2023-07-29T12:24:07;0.50;;;0.50;;
28756;SDS011;44294;48.282;14.282;2023-07-29T12:26:55;0.43;;;0.43;;
28756;SDS011;44294;48.282;14.282;2023-07-29T12:29:43;0.50;;;0.50;;
28756;SDS011;44294;48.282;14.282;2023-07-29T12:32:30;0.50;;;0.50;;
28756;SDS011;44294;48.282;14.282;2023-07-29T12:35:17;0.50;;;0.50;;
28756;SDS011;44294;48.282;14.282;2023-07-29T12:38:05;0.40;;;0.40;;
28756;SDS011;44294;48.282;14.282;2023-07-29T12:40:52;0.50;;;0.50;;
28756;SDS011;44294;48.282;14.282;2023-07-29T12:43:39;0.50;;;0.50;;
28756;SDS011;44294;48.282;14.282;2023-07-29T12:46:29;0.50;;;0.50;;
28756;SDS011;44294;48.282;14.282;2023-07-29T12:49:16;0.50;;;0.50;;
28756;SDS011;44294;48.282;14.282;2023-07-29T12:52:03;0.50;;;0.50;;
28756;SDS011;44294;48.282;14.282;2023-07-29T12:54:51;0.50;;;0.50;;
28756;SDS011;44294;48.282;14.282;2023-07-29T12:57:39;0.50;;;0.50;;
28756;SDS011;44294;48.282;14.282;2023-07-29T13:00:27;0.50;;;0.50;;
28756;SDS011;44294;48.282;14.282;2023-07-29T13:03:14;0.50;;;0.50;;
28756;SDS011;44294;48.282;14.282;2023-07-29T13:06:02;0.50;;;0.50;;
28756;SDS011;44294;48.282;14.282;2023-07-29T13:08:49;0.50;;;0.50;;
28756;SDS011;44294;48.282;14.282;2023-07-29T13:11:37;0.50;;;0.50;;
28756;SDS011;44294;48.282;14.282;2023-07-29T13:14:24;0.50;;;0.50;;
28756;SDS011;44294;48.282;14.282;2023-07-29T13:17:12;0.50;;;0.50;;
28756;SDS011;44294;48.282;14.282;2023-07-29T13:20:00;0.50;;;0.50;;
28756;SDS011;44294;48.282;14.282;2023-07-29T13:22:47;0.50;;;0.50;;
28756;SDS011;44294;48.282;14.282;2023-07-29T13:25:34;0.50;;;0.50;;
28756;SDS011;44294;48.282;14.282;2023-07-29T13:28:22;0.40;;;0.40;;
28756;SDS011;44294;48.282;14.282;2023-07-29T13:31:09;0.50;;;0.50;;
28756;SDS011;44294;48.282;14.282;2023-07-29T13:33:57;0.50;;;0.50;;
28756;SDS011;44294;48.282;14.282;2023-07-29T13:36:44;0.50;;;0.50;;
28756;SDS011;44294;48.282;14.282;2023-07-29T13:39:31;0.50;;;0.50;;
28756;SDS011;44294;48.282;14.282;2023-07-29T13:42:19;0.50;;;0.50;;
28756;SDS011;44294;48.282;14.282;2023-07-29T13:45:06;0.50;;;0.50;;
28756;SDS011;44294;48.282;14.282;2023-07-29T13:47:54;0.50;;;0.50;;
28756;SDS011;44294;48.282;14.282;2023-07-29T13:50:41;0.50;;;0.50;;
28756;SDS011;44294;48.282;14.282;2023-07-29T13:53:30;0.50;;;0.50;;
28756;SDS011;44294;48.282;14.282;2023-07-29T13:56:17;0.50;;;0.50;;
28756;SDS011;44294;48.282;14.282;2023-07-29T13:59:04;0.50;;;0.50;;
28756;SDS011;44294;48.282;14.282;2023-07-29T14:01:52;0.50;;;0.50;;
28756;SDS011;44294;48.282;14.282;2023-07-29T14:04:39;0.50;;;0.50;;
28756;SDS011;44294;48.282;14.282;2023-07-29T14:07:26;0.50;;;0.50;;
28756;SDS011;44294;48.282;14.282;2023-07-29T14:10:14;0.50;;;0.50;;
28756;SDS011;44294;48.282;14.282;2023-07-29T14:13:01;0.50;;;0.50;;
28756;SDS011;44294;48.282;14.282;2023-07-29T14:15:49;0.50;;;0.50;;
28756;SDS011;44294;48.282;14.282;2023-07-29T14:18:36;0.50;;;0.50;;
28756;SDS011;44294;48.282;14.282;2023-07-29T14:21:23;0.50;;;0.50;;
28756;SDS011;44294;48.282;14.282;2023-07-29T14:24:11;0.50;;;0.50;;
28756;SDS011;44294;48.282;14.282;2023-07-29T14:26:58;0.50;;;0.50;;
28756;SDS011;44294;48.282;14.282;2023-07-29T14:29:45;0.50;;;0.50;;
28756;SDS011;44294;48.282;14.282;2023-07-29T14:32:33;0.50;;;0.50;;
28756;SDS011;44294;48.282;14.282;2023-07-29T14:35:20;0.50;;;0.50;;
28756;SDS011;44294;48.282;14.282;2023-07-29T14:38:08;0.60;;;0.60;;
28756;SDS011;44294;48.282;14.282;2023-07-29T14:40:55;0.60;;;0.60;;
28756;SDS011;44294;48.282;14.282;2023-07-29T14:43:42;0.63;;;0.63;;
28756;SDS011;44294;48.282;14.282;2023-07-29T14:46:30;0.60;;;0.60;;
28756;SDS011;44294;48.282;14.282;2023-07-29T14:49:17;0.60;;;0.60;;
28756;SDS011;44294;48.282;14.282;2023-07-29T14:52:05;0.50;;;0.50;;
28756;SDS011;44294;48.282;14.282;2023-07-29T14:54:52;0.50;;;0.50;;
28756;SDS011;44294;48.282;14.282;2023-07-29T14:57:40;0.57;;;0.57;;
28756;SDS011;44294;48.282;14.282;2023-07-29T15:00:27;0.50;;;0.50;;
28756;SDS011;44294;48.282;14.282;2023-07-29T15:03:15;0.60;;;0.60;;
28756;SDS011;44294;48.282;14.282;2023-07-29T15:06:02;0.50;;;0.50;;
28756;SDS011;44294;48.282;14.282;2023-07-29T15:08:49;0.57;;;0.57;;
28756;SDS011;44294;48.282;14.282;2023-07-29T15:11:37;0.50;;;0.50;;
28756;SDS011;44294;48.282;14.282;2023-07-29T15:14:24;0.50;;;0.50;;
28756;SDS011;44294;48.282;14.282;2023-07-29T15:17:12;0.50;;;0.50;;
28756;SDS011;44294;48.282;14.282;2023-07-29T15:19:59;0.50;;;0.50;;
28756;SDS011;44294;48.282;14.282;2023-07-29T15:22:47;0.60;;;0.60;;
28756;SDS011;44294;48.282;14.282;2023-07-29T15:25:34;0.60;;;0.60;;
28756;SDS011;44294;48.282;14.282;2023-07-29T15:28:21;0.50;;;0.50;;
28756;SDS011;44294;48.282;14.282;2023-07-29T15:31:09;0.50;;;0.50;;
28756;SDS011;44294;48.282;14.282;2023-07-29T15:33:56;0.50;;;0.50;;
28756;SDS011;44294;48.282;14.282;2023-07-29T15:36:44;0.50;;;0.50;;
28756;SDS011;44294;48.282;14.282;2023-07-29T15:39:31;0.50;;;0.50;;
28756;SDS011;44294;48.282;14.282;2023-07-29T15:42:18;0.60;;;0.60;;
28756;SDS011;44294;48.282;14.282;2023-07-29T15:45:06;0.57;;;0.57;;
28756;SDS011;44294;48.282;14.282;2023-07-29T15:47:53;0.50;;;0.50;;
28756;SDS011;44294;48.282;14.282;2023-07-29T15:50:41;0.60;;;0.60;;
28756;SDS011;44294;48.282;14.282;2023-07-29T15:53:28;0.60;;;0.60;;
28756;SDS011;44294;48.282;14.282;2023-07-29T15:56:16;0.50;;;0.50;;
28756;SDS011;44294;48.282;14.282;2023-07-29T15:59:03;0.50;;;0.50;;
28756;SDS011;44294;48.282;14.282;2023-07-29T16:01:50;0.50;;;0.50;;
28756;SDS011;44294;48.282;14.282;2023-07-29T16:04:38;0.50;;;0.50;;
28756;SDS011;44294;48.282;14.282;2023-07-29T16:07:25;0.50;;;0.50;;
28756;SDS011;44294;48.282;14.282;2023-07-29T16:10:12;0.50;;;0.50;;
28756;SDS011;44294;48.282;14.282;2023-07-29T16:13:00;0.50;;;0.50;;
28756;SDS011;44294;48.282;14.282;2023-07-29T16:15:49;0.50;;;0.50;;
28756;SDS011;44294;48.282;14.282;2023-07-29T16:18:36;0.50;;;0.50;;
28756;SDS011;44294;48.282;14.282;2023-07-29T16:21:24;0.50;;;0.50;;
28756;SDS011;44294;48.282;14.282;2023-07-29T16:24:11;0.60;;;0.60;;
28756;SDS011;44294;48.282;14.282;2023-07-29T16:27:00;0.60;;;0.60;;
28756;SDS011;44294;48.282;14.282;2023-07-29T16:29:47;0.60;;;0.60;;
28756;SDS011;44294;48.282;14.282;2023-07-29T16:32:34;0.60;;;0.60;;
28756;SDS011;44294;48.282;14.282;2023-07-29T16:35:22;0.50;;;0.50;;
28756;SDS011;44294;48.282;14.282;2023-07-29T16:38:09;0.60;;;0.60;;
28756;SDS011;44294;48.282;14.282;2023-07-29T16:40:56;0.60;;;0.60;;
28756;SDS011;44294;48.282;14.282;2023-07-29T16:43:44;0.60;;;0.60;;
28756;SDS011;44294;48.282;14.282;2023-07-29T16:46:31;0.50;;;0.50;;